createdAt,value
2019-05-15T00:00:49.195Z,1007.30
2019-05-15T00:01:49.214Z,1007.32
2019-05-15T00:02:49.233Z,1007.32
2019-05-15T00:03:49.470Z,1007.31
2019-05-15T00:04:49.355Z,1007.27
2019-05-15T00:05:49.758Z,1007.25
2019-05-15T00:06:49.315Z,1007.25
2019-05-15T00:07:49.332Z,1007.26
2019-05-15T00:08:49.354Z,1007.25
2019-05-15T00:09:49.382Z,1007.25
2019-05-15T00:10:49.391Z,1007.28
2019-05-15T00:11:49.411Z,1007.27
2019-05-15T00:12:49.432Z,1007.32
2019-05-15T00:13:49.448Z,1007.32
2019-05-15T00:14:49.471Z,1007.26
2019-05-15T00:15:49.489Z,1007.30
2019-05-15T00:16:49.511Z,1007.31
2019-05-15T00:17:49.535Z,1007.31
2019-05-15T00:18:49.549Z,1007.34
2019-05-15T00:19:49.574Z,1007.31
2019-05-15T00:20:49.919Z,1007.32
2019-05-15T00:21:49.608Z,1007.30
2019-05-15T00:22:49.631Z,1007.35
2019-05-15T00:23:49.650Z,1007.35
2019-05-15T00:24:49.673Z,1007.36
2019-05-15T00:25:49.690Z,1007.37
2019-05-15T00:26:49.708Z,1007.38
2019-05-15T00:27:49.739Z,1007.44
2019-05-15T00:28:49.754Z,1007.46
2019-05-15T00:29:49.776Z,1007.45
2019-05-15T00:30:49.792Z,1007.48
2019-05-15T00:31:49.812Z,1007.49
2019-05-15T00:32:49.836Z,1007.50
2019-05-15T00:33:49.853Z,1007.47
2019-05-15T00:34:49.875Z,1007.48
2019-05-15T00:35:49.891Z,1007.49
2019-05-15T00:36:49.912Z,1007.43
2019-05-15T00:37:49.952Z,1007.41
2019-05-15T00:38:49.951Z,1007.36
2019-05-15T00:39:49.971Z,1007.41
2019-05-15T00:40:49.990Z,1007.36
2019-05-15T00:41:54.283Z,1007.33
2019-05-15T00:42:50.036Z,1007.28
2019-05-15T00:43:50.055Z,1007.30
2019-05-15T00:44:50.072Z,1007.28
2019-05-15T00:45:50.090Z,1007.27
2019-05-15T00:46:50.117Z,1007.31
2019-05-15T00:47:50.133Z,1007.30
2019-05-15T00:48:50.159Z,1007.31
2019-05-15T00:49:50.173Z,1007.31
2019-05-15T00:50:50.194Z,1007.30
2019-05-15T00:51:50.213Z,1007.31
2019-05-15T00:52:50.232Z,1007.30
2019-05-15T00:53:50.253Z,1007.32
2019-05-15T00:54:50.276Z,1007.31
2019-05-15T00:55:50.294Z,1007.34
2019-05-15T00:56:50.318Z,1007.35
2019-05-15T00:57:50.334Z,1007.37
2019-05-15T00:58:50.354Z,1007.42
2019-05-15T00:59:50.377Z,1007.39
2019-05-15T01:00:50.396Z,1007.39
2019-05-15T01:01:50.423Z,1007.41
2019-05-15T01:02:50.436Z,1007.36
2019-05-15T01:03:50.483Z,1007.35
2019-05-15T01:04:50.511Z,1007.37
2019-05-15T01:05:50.526Z,1007.35
2019-05-15T01:06:52.679Z,1007.35
2019-05-15T01:07:50.583Z,1007.38
2019-05-15T01:08:50.591Z,1007.38
2019-05-15T01:09:50.641Z,1007.36
2019-05-15T01:10:50.640Z,1007.33
2019-05-15T01:11:50.652Z,1007.36
2019-05-15T01:12:50.672Z,1007.42
2019-05-15T01:13:50.692Z,1007.41
2019-05-15T01:14:50.713Z,1007.41
2019-05-15T01:15:50.729Z,1007.39
2019-05-15T01:16:50.757Z,1007.39
2019-05-15T01:17:50.772Z,1007.39
2019-05-15T01:18:50.791Z,1007.39
2019-05-15T01:19:50.805Z,1007.45
2019-05-15T01:20:50.829Z,1007.44
2019-05-15T01:21:50.851Z,1007.44
2019-05-15T01:22:50.843Z,1007.44
2019-05-15T01:23:50.865Z,1007.44
2019-05-15T01:24:50.884Z,1007.46
2019-05-15T01:25:50.908Z,1007.47
2019-05-15T01:26:50.943Z,1007.45
2019-05-15T01:27:50.957Z,1007.48
2019-05-15T01:28:50.968Z,1007.46
2019-05-15T01:29:50.993Z,1007.42
2019-05-15T01:30:51.009Z,1007.46
2019-05-15T01:31:51.029Z,1007.45
2019-05-15T01:32:51.050Z,1007.46
2019-05-15T01:33:51.071Z,1007.45
2019-05-15T01:34:51.105Z,1007.43
2019-05-15T01:35:51.114Z,1007.44
2019-05-15T01:36:51.142Z,1007.45
2019-05-15T01:37:51.155Z,1007.44
2019-05-15T01:38:51.171Z,1007.48
2019-05-15T01:39:51.194Z,1007.46
2019-05-15T01:40:51.212Z,1007.46
2019-05-15T01:41:51.236Z,1007.47
2019-05-15T01:42:51.254Z,1007.50
2019-05-15T01:43:51.283Z,1007.50
2019-05-15T01:44:51.298Z,1007.47
2019-05-15T01:45:51.320Z,1007.52
2019-05-15T01:46:51.340Z,1007.53
2019-05-15T01:47:51.360Z,1007.53
2019-05-15T01:48:51.378Z,1007.50
2019-05-15T01:49:51.403Z,1007.50
2019-05-15T01:50:51.423Z,1007.50
2019-05-15T01:51:51.442Z,1007.48
2019-05-15T01:52:52.378Z,1007.47
2019-05-15T01:53:51.480Z,1007.44
2019-05-15T01:54:51.502Z,1007.42
2019-05-15T01:55:51.524Z,1007.47
2019-05-15T01:56:51.547Z,1007.42
2019-05-15T01:57:52.053Z,1007.44
2019-05-15T01:58:51.587Z,1007.50
2019-05-15T01:59:57.208Z,1007.54
2019-05-15T02:00:51.628Z,1007.53
2019-05-15T02:01:51.648Z,1007.51
2019-05-15T02:02:51.951Z,1007.53
2019-05-15T02:03:51.692Z,1007.47
2019-05-15T02:04:51.713Z,1007.45
2019-05-15T02:05:51.734Z,1007.43
2019-05-15T02:06:51.777Z,1007.41
2019-05-15T02:07:51.779Z,1007.41
2019-05-15T02:08:51.796Z,1007.35
2019-05-15T02:09:51.816Z,1007.35
2019-05-15T02:10:51.839Z,1007.40
2019-05-15T02:11:51.870Z,1007.41
2019-05-15T02:12:51.878Z,1007.37
2019-05-15T02:13:51.900Z,1007.40
2019-05-15T02:14:51.923Z,1007.35
2019-05-15T02:15:51.942Z,1007.37
2019-05-15T02:16:51.965Z,1007.40
2019-05-15T02:17:51.985Z,1007.43
2019-05-15T02:18:52.019Z,1007.38
2019-05-15T02:19:52.025Z,1007.43
2019-05-15T02:20:52.065Z,1007.42
2019-05-15T02:21:52.070Z,1007.42
2019-05-15T02:22:52.092Z,1007.41
2019-05-15T02:23:52.110Z,1007.41
2019-05-15T02:24:52.131Z,1007.43
2019-05-15T02:25:52.155Z,1007.42
2019-05-15T02:26:52.173Z,1007.45
2019-05-15T02:27:52.196Z,1007.40
2019-05-15T02:28:52.809Z,1007.36
2019-05-15T02:29:52.267Z,1007.38
2019-05-15T02:30:52.263Z,1007.37
2019-05-15T02:31:52.277Z,1007.37
2019-05-15T02:32:52.304Z,1007.38
2019-05-15T02:33:52.329Z,1007.39
2019-05-15T02:34:52.356Z,1007.39
2019-05-15T02:35:52.370Z,1007.37
2019-05-15T02:36:52.390Z,1007.41
2019-05-15T02:37:52.403Z,1007.41
2019-05-15T02:38:52.427Z,1007.40
2019-05-15T02:39:52.451Z,1007.36
2019-05-15T02:40:59.158Z,1007.36
2019-05-15T02:41:52.499Z,1007.34
2019-05-15T02:42:53.829Z,1007.33
2019-05-15T02:43:53.057Z,1007.33
2019-05-15T02:44:52.673Z,1007.37
2019-05-15T02:45:52.624Z,1007.35
2019-05-15T02:46:52.599Z,1007.34
2019-05-15T02:47:52.617Z,1007.44
2019-05-15T02:48:52.653Z,1007.36
2019-05-15T02:49:52.661Z,1007.36
2019-05-15T02:50:52.697Z,1007.40
2019-05-15T02:51:52.702Z,1007.39
2019-05-15T02:52:52.726Z,1007.41
2019-05-15T02:53:52.748Z,1007.43
2019-05-15T02:54:52.766Z,1007.43
2019-05-15T02:55:52.791Z,1007.46
2019-05-15T02:56:52.810Z,1007.47
2019-05-15T02:57:52.831Z,1007.51
2019-05-15T02:58:52.877Z,1007.48
2019-05-15T02:59:52.886Z,1007.51
2019-05-15T03:00:53.706Z,1007.49
2019-05-15T03:01:52.922Z,1007.48
2019-05-15T03:02:53.046Z,1007.43
2019-05-15T03:03:52.967Z,1007.44
2019-05-15T03:04:53.191Z,1007.46
2019-05-15T03:05:53.002Z,1007.46
2019-05-15T03:06:53.026Z,1007.46
2019-05-15T03:07:53.048Z,1007.44
2019-05-15T03:08:53.067Z,1007.42
2019-05-15T03:09:53.104Z,1007.35
2019-05-15T03:10:53.118Z,1007.40
2019-05-15T03:11:53.135Z,1007.40
2019-05-15T03:12:53.161Z,1007.37
2019-05-15T03:13:53.176Z,1007.33
2019-05-15T03:14:53.202Z,1007.32
2019-05-15T03:15:53.220Z,1007.33
2019-05-15T03:16:53.403Z,1007.34
2019-05-15T03:17:53.349Z,1007.32
2019-05-15T03:18:55.724Z,1007.34
2019-05-15T03:19:53.315Z,1007.31
2019-05-15T03:20:53.561Z,1007.35
2019-05-15T03:21:53.389Z,1007.35
2019-05-15T03:22:53.453Z,1007.38
2019-05-15T03:23:53.405Z,1007.32
2019-05-15T03:24:53.415Z,1007.30
2019-05-15T03:25:53.447Z,1007.31
2019-05-15T03:26:53.460Z,1007.28
2019-05-15T03:27:53.485Z,1007.29
2019-05-15T03:28:58.987Z,1007.27
2019-05-15T03:29:53.524Z,1007.26
2019-05-15T03:32:13.164Z,1007.25
2019-05-15T03:33:02.325Z,1007.25
2019-05-15T03:33:54.793Z,1007.25
2019-05-15T03:34:56.503Z,1007.21
2019-05-15T03:35:55.008Z,1007.19
2019-05-15T03:36:53.785Z,1007.20
2019-05-15T03:37:53.707Z,1007.16
2019-05-15T03:38:53.721Z,1007.15
2019-05-15T03:39:53.744Z,1007.16
2019-05-15T03:40:53.766Z,1007.12
2019-05-15T03:41:53.791Z,1007.17
2019-05-15T03:42:53.820Z,1007.13
2019-05-15T03:43:53.846Z,1007.11
2019-05-15T03:44:53.856Z,1007.09
2019-05-15T03:45:53.876Z,1007.09
2019-05-15T03:46:53.913Z,1007.06
2019-05-15T03:47:53.922Z,1007.06
2019-05-15T03:48:53.943Z,1007.01
2019-05-15T03:49:53.964Z,1007.01
2019-05-15T03:50:53.992Z,1006.97
2019-05-15T03:51:54.011Z,1006.94
2019-05-15T03:52:54.033Z,1006.98
2019-05-15T03:53:54.062Z,1006.93
2019-05-15T03:54:54.080Z,1006.96
2019-05-15T03:55:54.099Z,1006.98
2019-05-15T03:56:54.122Z,1006.94
2019-05-15T03:57:54.147Z,1006.96
2019-05-15T03:58:54.181Z,1006.93
2019-05-15T03:59:54.197Z,1006.93
2019-05-15T04:00:54.207Z,1006.92
2019-05-15T04:01:54.229Z,1006.94
2019-05-15T04:02:55.157Z,1006.91
2019-05-15T04:03:54.275Z,1006.87
2019-05-15T04:04:57.196Z,1006.84
2019-05-15T04:05:54.319Z,1006.81
2019-05-15T04:06:54.347Z,1006.76
2019-05-15T04:07:54.460Z,1006.78
2019-05-15T04:08:54.418Z,1006.76
2019-05-15T04:09:54.409Z,1006.73
2019-05-15T04:10:54.434Z,1006.74
2019-05-15T04:11:54.453Z,1006.77
2019-05-15T04:12:54.476Z,1006.68
2019-05-15T04:13:54.498Z,1006.72
2019-05-15T04:14:54.661Z,1006.71
2019-05-15T04:15:54.667Z,1006.66
2019-05-15T04:16:54.565Z,1006.68
2019-05-15T04:17:54.586Z,1006.66
2019-05-15T04:18:54.616Z,1006.62
2019-05-15T04:19:54.656Z,1006.61
2019-05-15T04:20:54.674Z,1006.56
2019-05-15T04:21:54.675Z,1006.56
2019-05-15T04:22:54.698Z,1006.53
2019-05-15T04:23:54.723Z,1006.51
2019-05-15T04:24:54.747Z,1006.51
2019-05-15T04:25:54.767Z,1006.51
2019-05-15T04:26:54.791Z,1006.49
2019-05-15T04:27:54.811Z,1006.52
2019-05-15T04:28:54.847Z,1006.51
2019-05-15T04:29:54.856Z,1006.46
2019-05-15T04:30:54.880Z,1006.46
2019-05-15T04:32:01.021Z,1006.44
2019-05-15T04:32:54.925Z,1006.43
2019-05-15T04:33:54.950Z,1006.40
2019-05-15T04:34:54.970Z,1006.36
2019-05-15T04:35:54.994Z,1006.38
2019-05-15T04:36:55.018Z,1006.37
2019-05-15T04:37:55.042Z,1006.31
2019-05-15T04:38:55.057Z,1006.31
2019-05-15T04:39:55.089Z,1006.29
2019-05-15T04:40:55.103Z,1006.29
2019-05-15T04:41:55.125Z,1006.29
2019-05-15T04:42:55.154Z,1006.27
2019-05-15T04:43:55.177Z,1006.26
2019-05-15T04:44:55.201Z,1006.27
2019-05-15T04:45:59.195Z,1006.28
2019-05-15T04:46:55.267Z,1006.23
2019-05-15T04:47:58.540Z,1006.26
2019-05-15T04:48:55.283Z,1006.24
2019-05-15T04:49:55.309Z,1006.19
2019-05-15T04:50:55.333Z,1006.16
2019-05-15T04:52:00.261Z,1006.15
2019-05-15T04:52:59.029Z,1006.15
2019-05-15T04:53:58.465Z,1006.12
2019-05-15T04:54:55.430Z,1006.07
2019-05-15T04:55:55.526Z,1006.09
2019-05-15T04:56:55.472Z,1006.05
2019-05-15T04:57:55.490Z,1006.01
2019-05-15T04:58:55.676Z,1005.98
2019-05-15T04:59:55.544Z,1005.94
2019-05-15T05:00:55.555Z,1005.93
2019-05-15T05:02:12.947Z,1005.91
2019-05-15T05:02:58.760Z,1005.90
2019-05-15T05:03:58.722Z,1005.87
2019-05-15T05:04:58.610Z,1005.88
2019-05-15T05:05:58.836Z,1005.88
2019-05-15T05:06:58.527Z,1005.87
2019-05-15T05:07:55.724Z,1005.84
2019-05-15T05:08:55.739Z,1005.84
2019-05-15T05:09:55.758Z,1005.82
2019-05-15T05:10:58.838Z,1005.78
2019-05-15T05:11:58.117Z,1005.79
2019-05-15T05:12:55.828Z,1005.76
2019-05-15T05:13:55.848Z,1005.74
2019-05-15T05:14:58.613Z,1005.73
2019-05-15T05:15:58.476Z,1005.68
2019-05-15T05:16:55.918Z,1005.69
2019-05-15T05:17:58.417Z,1005.69
2019-05-15T05:18:55.971Z,1005.69
2019-05-15T05:19:58.242Z,1005.67
2019-05-15T05:20:57.749Z,1005.65
2019-05-15T05:21:56.036Z,1005.66
2019-05-15T05:22:58.249Z,1005.62
2019-05-15T05:23:56.078Z,1005.61
2019-05-15T05:24:58.368Z,1005.58
2019-05-15T05:25:58.099Z,1005.60
2019-05-15T05:26:58.109Z,1005.58
2019-05-15T05:27:58.044Z,1005.56
2019-05-15T05:29:01.092Z,1005.60
2019-05-15T05:29:58.590Z,1005.59
2019-05-15T05:30:58.576Z,1005.59
2019-05-15T05:31:58.457Z,1005.62
2019-05-15T05:32:57.989Z,1005.62
2019-05-15T05:33:57.780Z,1005.62
2019-05-15T05:34:58.810Z,1005.59
2019-05-15T05:35:58.347Z,1005.56
2019-05-15T05:36:58.885Z,1005.57
2019-05-15T05:37:58.323Z,1005.57
2019-05-15T05:38:58.403Z,1005.52
2019-05-15T05:39:57.698Z,1005.51
2019-05-15T05:40:58.643Z,1005.49
2019-05-15T05:41:58.661Z,1005.50
2019-05-15T05:42:56.516Z,1005.49
2019-05-15T05:43:58.581Z,1005.48
2019-05-15T05:44:58.221Z,1005.45
2019-05-15T05:45:58.248Z,1005.42
2019-05-15T05:46:58.218Z,1005.43
2019-05-15T05:47:58.062Z,1005.42
2019-05-15T05:48:58.320Z,1005.37
2019-05-15T05:49:58.177Z,1005.35
2019-05-15T05:50:58.380Z,1005.40
2019-05-15T05:51:58.724Z,1005.38
2019-05-15T05:52:57.946Z,1005.36
2019-05-15T05:53:58.879Z,1005.35
2019-05-15T05:54:58.136Z,1005.31
2019-05-15T05:55:58.023Z,1005.34
2019-05-15T05:56:58.608Z,1005.29
2019-05-15T05:57:58.429Z,1005.29
2019-05-15T05:58:58.582Z,1005.27
2019-05-15T05:59:58.317Z,1005.27
2019-05-15T06:00:58.623Z,1005.26
2019-05-15T06:01:58.950Z,1005.25
2019-05-15T06:02:59.119Z,1005.20
2019-05-15T06:03:58.322Z,1005.17
2019-05-15T06:04:58.240Z,1005.16
2019-05-15T06:05:59.005Z,1005.14
2019-05-15T06:07:06.983Z,1005.15
2019-05-15T06:07:58.192Z,1005.14
2019-05-15T06:08:58.399Z,1005.11
2019-05-15T06:09:58.148Z,1005.10
2019-05-15T06:10:58.475Z,1005.07
2019-05-15T06:11:58.336Z,1005.07
2019-05-15T06:12:58.697Z,1005.10
2019-05-15T06:13:58.376Z,1005.10
2019-05-15T06:14:58.093Z,1005.05
2019-05-15T06:15:59.041Z,1005.06
2019-05-15T06:16:58.866Z,1005.05
2019-05-15T06:17:58.541Z,1005.03
2019-05-15T06:18:58.662Z,1004.98
2019-05-15T06:19:58.629Z,1004.97
2019-05-15T06:20:58.623Z,1004.92
2019-05-15T06:22:00.774Z,1004.90
2019-05-15T06:22:58.026Z,1004.91
2019-05-15T06:24:03.577Z,1004.91
2019-05-15T06:24:57.992Z,1004.90
2019-05-15T06:25:59.224Z,1004.87
2019-05-15T06:26:58.680Z,1004.87
2019-05-15T06:27:58.341Z,1004.90
2019-05-15T06:28:58.409Z,1004.83
2019-05-15T06:29:58.086Z,1004.82
2019-05-15T06:31:00.635Z,1004.84
2019-05-15T06:31:58.754Z,1004.77
2019-05-15T06:33:05.663Z,1004.77
2019-05-15T06:33:58.158Z,1004.80
2019-05-15T06:34:57.897Z,1004.76
2019-05-15T06:35:59.220Z,1004.72
2019-05-15T06:36:58.892Z,1004.73
2019-05-15T06:37:59.118Z,1004.74
2019-05-15T06:38:59.026Z,1004.73
2019-05-15T06:39:58.839Z,1004.75
2019-05-15T06:40:58.359Z,1004.73
2019-05-15T06:41:58.833Z,1004.71
2019-05-15T06:42:59.323Z,1004.72
2019-05-15T06:43:58.916Z,1004.71
2019-05-15T06:44:58.948Z,1004.72
2019-05-15T06:45:58.565Z,1004.68
2019-05-15T06:46:58.753Z,1004.66
2019-05-15T06:48:01.369Z,1004.69
2019-05-15T06:48:58.257Z,1004.64
2019-05-15T06:49:58.090Z,1004.61
2019-05-15T06:50:58.118Z,1004.64
2019-05-15T06:51:58.267Z,1004.65
2019-05-15T06:52:58.732Z,1004.62
2019-05-15T06:53:58.409Z,1004.60
2019-05-15T06:54:59.275Z,1004.61
2019-05-15T06:55:58.595Z,1004.62
2019-05-15T06:56:58.524Z,1004.58
2019-05-15T06:57:58.519Z,1004.54
2019-05-15T06:58:58.358Z,1004.55
2019-05-15T06:59:58.350Z,1004.55
2019-05-15T07:00:59.283Z,1004.54
2019-05-15T07:01:59.392Z,1004.52
2019-05-15T07:02:58.496Z,1004.51
2019-05-15T07:03:59.061Z,1004.49
2019-05-15T07:04:58.537Z,1004.50
2019-05-15T07:05:59.748Z,1004.45
2019-05-15T07:06:58.561Z,1004.43
2019-05-15T07:07:58.655Z,1004.40
2019-05-15T07:08:58.826Z,1004.43
2019-05-15T07:09:58.551Z,1004.42
2019-05-15T07:10:58.585Z,1004.38
2019-05-15T07:11:59.071Z,1004.37
2019-05-15T07:12:58.649Z,1004.34
2019-05-15T07:13:58.645Z,1004.32
2019-05-15T07:14:58.679Z,1004.31
2019-05-15T07:15:58.777Z,1004.30
2019-05-15T07:16:59.173Z,1004.27
2019-05-15T07:17:58.742Z,1004.27
2019-05-15T07:18:59.049Z,1004.26
2019-05-15T07:19:59.389Z,1004.21
2019-05-15T07:20:58.841Z,1004.21
2019-05-15T07:21:58.832Z,1004.18
2019-05-15T07:22:58.856Z,1004.18
2019-05-15T07:23:58.879Z,1004.20
2019-05-15T07:24:58.917Z,1004.18
2019-05-15T07:25:58.963Z,1004.17
2019-05-15T07:26:59.290Z,1004.17
2019-05-15T07:27:58.975Z,1004.16
2019-05-15T07:28:59.610Z,1004.14
2019-05-15T07:29:59.021Z,1004.13
2019-05-15T07:30:59.048Z,1004.09
2019-05-15T07:31:59.071Z,1004.10
2019-05-15T07:32:59.091Z,1004.09
2019-05-15T07:33:59.984Z,1004.11
2019-05-15T07:34:59.141Z,1004.10
2019-05-15T07:35:59.262Z,1004.09
2019-05-15T07:36:59.365Z,1004.05
2019-05-15T07:37:59.221Z,1004.05
2019-05-15T07:38:59.271Z,1003.96
2019-05-15T07:39:59.295Z,1003.96
2019-05-15T07:41:03.429Z,1003.95
2019-05-15T07:41:59.299Z,1003.88
2019-05-15T07:42:59.328Z,1003.85
2019-05-15T07:43:59.346Z,1003.89
2019-05-15T07:44:59.369Z,1003.86
2019-05-15T07:45:59.391Z,1003.86
2019-05-15T07:46:59.416Z,1003.84
2019-05-15T07:47:59.465Z,1003.82
2019-05-15T07:48:59.468Z,1003.81
2019-05-15T07:49:59.512Z,1003.77
2019-05-15T07:50:59.620Z,1003.76
2019-05-15T07:51:59.532Z,1003.78
2019-05-15T07:52:59.572Z,1003.72
2019-05-15T07:54:02.550Z,1003.71
2019-05-15T07:54:59.601Z,1003.69
2019-05-15T07:56:01.124Z,1003.73
2019-05-15T07:56:59.661Z,1003.71
2019-05-15T07:57:59.673Z,1003.72
2019-05-15T07:58:59.764Z,1003.67
2019-05-15T07:59:59.722Z,1003.62
2019-05-15T08:00:59.742Z,1003.63
2019-05-15T08:01:59.765Z,1003.64
2019-05-15T08:02:59.793Z,1003.59
2019-05-15T08:04:21.710Z,1003.53
2019-05-15T08:04:59.834Z,1003.58
2019-05-15T08:06:02.966Z,1003.51
2019-05-15T08:06:59.882Z,1003.53
2019-05-15T08:07:59.906Z,1003.50
2019-05-15T08:08:59.938Z,1003.53
2019-05-15T08:09:59.956Z,1003.55
2019-05-15T08:11:14.834Z,1003.57
2019-05-15T08:12:03.134Z,1003.50
2019-05-15T08:13:00.024Z,1003.47
2019-05-15T08:14:00.050Z,1003.46
2019-05-15T08:15:00.071Z,1003.46
2019-05-15T08:16:00.092Z,1003.47
2019-05-15T08:17:00.116Z,1003.43
2019-05-15T08:18:08.698Z,1003.47
2019-05-15T08:19:00.165Z,1003.45
2019-05-15T08:20:00.187Z,1003.42
2019-05-15T08:21:00.208Z,1003.45
2019-05-15T08:22:00.233Z,1003.41
2019-05-15T08:23:00.258Z,1003.38
2019-05-15T08:24:00.280Z,1003.39
2019-05-15T08:25:00.303Z,1003.35
2019-05-15T08:26:00.326Z,1003.35
2019-05-15T08:27:00.348Z,1003.32
2019-05-15T08:28:00.375Z,1003.30
2019-05-15T08:29:00.402Z,1003.28
2019-05-15T08:30:00.423Z,1003.29
2019-05-15T08:31:00.443Z,1003.26
2019-05-15T08:32:00.469Z,1003.25
2019-05-15T08:33:00.510Z,1003.24
2019-05-15T08:34:12.801Z,1003.22
2019-05-15T08:35:00.537Z,1003.19
2019-05-15T08:36:00.561Z,1003.15
2019-05-15T08:37:00.586Z,1003.17
2019-05-15T08:38:00.606Z,1003.14
2019-05-15T08:39:00.631Z,1003.15
2019-05-15T08:40:00.689Z,1003.16
2019-05-15T08:41:00.729Z,1003.11
2019-05-15T08:42:00.700Z,1003.14
2019-05-15T08:43:02.121Z,1003.12
2019-05-15T08:44:00.752Z,1003.14
2019-05-15T08:45:00.770Z,1003.08
2019-05-15T08:46:00.800Z,1003.13
2019-05-15T08:47:00.818Z,1003.10
2019-05-15T08:48:00.841Z,1003.07
2019-05-15T08:49:00.868Z,1003.03
2019-05-15T08:50:00.899Z,1003.01
2019-05-15T08:51:00.913Z,1003.01
2019-05-15T08:52:00.935Z,1003.01
2019-05-15T08:53:00.962Z,1002.98
2019-05-15T08:54:00.988Z,1003.00
2019-05-15T08:55:01.018Z,1002.96
2019-05-15T08:56:01.031Z,1002.96
2019-05-15T08:57:01.056Z,1002.97
2019-05-15T08:58:06.702Z,1002.94
2019-05-15T08:59:01.106Z,1002.93
2019-05-15T09:00:01.153Z,1002.91
2019-05-15T09:01:01.183Z,1002.91
2019-05-15T09:02:01.168Z,1002.90
2019-05-15T09:03:01.207Z,1002.90
2019-05-15T09:04:01.238Z,1002.92
2019-05-15T09:05:01.258Z,1002.88
2019-05-15T09:06:01.264Z,1002.89
2019-05-15T09:07:01.462Z,1002.91
2019-05-15T09:08:01.313Z,1002.91
2019-05-15T09:09:01.365Z,1002.93
2019-05-15T09:10:01.360Z,1002.91
2019-05-15T09:11:01.378Z,1002.86
2019-05-15T09:12:01.401Z,1002.82
2019-05-15T09:13:01.423Z,1002.85
2019-05-15T09:14:01.446Z,1002.80
2019-05-15T09:15:01.477Z,1002.86
2019-05-15T09:16:01.512Z,1002.86
2019-05-15T09:17:01.519Z,1002.88
2019-05-15T09:18:14.797Z,1002.84
2019-05-15T09:19:01.583Z,1002.81
2019-05-15T09:20:01.590Z,1002.84
2019-05-15T09:21:01.700Z,1002.80
2019-05-15T09:22:01.633Z,1002.82
2019-05-15T09:23:01.683Z,1002.79
2019-05-15T09:24:01.681Z,1002.76
2019-05-15T09:25:01.721Z,1002.77
2019-05-15T09:26:01.729Z,1002.75
2019-05-15T09:27:01.770Z,1002.75
2019-05-15T09:28:01.777Z,1002.70
2019-05-15T09:29:01.883Z,1002.71
2019-05-15T09:30:01.820Z,1002.73
2019-05-15T09:31:01.849Z,1002.74
2019-05-15T09:32:01.868Z,1002.74
2019-05-15T09:33:01.977Z,1002.75
2019-05-15T09:34:01.946Z,1002.77
2019-05-15T09:35:01.939Z,1002.72
2019-05-15T09:36:02.034Z,1002.76
2019-05-15T09:37:02.010Z,1002.75
2019-05-15T09:38:02.004Z,1002.76
2019-05-15T09:39:02.042Z,1002.76
2019-05-15T09:40:02.052Z,1002.70
2019-05-15T09:41:02.076Z,1002.70
2019-05-15T09:42:02.100Z,1002.74
2019-05-15T09:43:02.119Z,1002.75
2019-05-15T09:44:02.156Z,1002.78
2019-05-15T09:45:02.188Z,1002.78
2019-05-15T09:46:02.190Z,1002.81
2019-05-15T09:47:02.214Z,1002.75
2019-05-15T09:48:02.265Z,1002.77
2019-05-15T09:49:02.260Z,1002.77
2019-05-15T09:50:02.282Z,1002.72
2019-05-15T09:51:02.309Z,1002.71
2019-05-15T09:52:02.328Z,1002.70
2019-05-15T09:53:02.367Z,1002.73
2019-05-15T09:54:02.387Z,1002.74
2019-05-15T09:55:02.501Z,1002.76
2019-05-15T09:56:02.421Z,1002.77
2019-05-15T09:57:02.444Z,1002.78
2019-05-15T09:58:02.469Z,1002.73
2019-05-15T09:59:02.490Z,1002.72
2019-05-15T10:00:02.515Z,1002.77
2019-05-15T10:01:02.542Z,1002.74
2019-05-15T10:02:02.559Z,1002.75
2019-05-15T10:03:02.595Z,1002.78
2019-05-15T10:04:02.607Z,1002.77
2019-05-15T10:05:06.667Z,1002.76
2019-05-15T10:06:02.649Z,1002.71
2019-05-15T10:07:02.715Z,1002.67
2019-05-15T10:08:02.738Z,1002.68
2019-05-15T10:09:02.725Z,1002.77
2019-05-15T10:10:02.742Z,1002.78
2019-05-15T10:11:02.766Z,1002.82
2019-05-15T10:12:02.793Z,1002.87
2019-05-15T10:13:02.810Z,1002.92
2019-05-15T10:14:02.833Z,1002.92
2019-05-15T10:15:02.861Z,1002.97
2019-05-15T10:16:02.878Z,1002.99
2019-05-15T10:17:02.908Z,1003.01
2019-05-15T10:18:02.922Z,1002.98
2019-05-15T10:19:02.946Z,1003.05
2019-05-15T10:20:02.970Z,1003.03
2019-05-15T10:21:03.003Z,1003.02
2019-05-15T10:22:03.016Z,1003.00
2019-05-15T10:23:03.058Z,1003.00
2019-05-15T10:24:03.060Z,1002.95
2019-05-15T10:25:03.083Z,1003.03
2019-05-15T10:26:03.119Z,1003.01
2019-05-15T10:27:03.133Z,1002.98
2019-05-15T10:28:03.152Z,1003.00
2019-05-15T10:29:03.175Z,1002.99
2019-05-15T10:30:03.200Z,1003.05
2019-05-15T10:31:03.230Z,1003.11
2019-05-15T10:32:03.244Z,1003.14
2019-05-15T10:33:03.267Z,1003.16
2019-05-15T10:34:03.306Z,1003.17
2019-05-15T10:35:03.324Z,1003.14
2019-05-15T10:36:03.332Z,1003.13
2019-05-15T10:37:03.358Z,1003.12
2019-05-15T10:38:03.392Z,1003.13
2019-05-15T10:39:03.440Z,1003.08
2019-05-15T10:40:03.425Z,1003.11
2019-05-15T10:41:09.385Z,1003.12
2019-05-15T10:42:03.471Z,1003.16
2019-05-15T10:43:03.495Z,1003.13
2019-05-15T10:44:03.516Z,1003.17
2019-05-15T10:45:03.542Z,1003.23
2019-05-15T10:46:03.563Z,1003.20
2019-05-15T10:47:03.583Z,1003.26
2019-05-15T10:48:03.604Z,1003.25
2019-05-15T10:49:03.645Z,1003.26
2019-05-15T10:50:03.662Z,1003.25
2019-05-15T10:51:07.182Z,1003.23
2019-05-15T10:52:03.697Z,1003.23
2019-05-15T10:53:03.822Z,1003.25
2019-05-15T10:54:03.744Z,1003.26
2019-05-15T10:55:03.766Z,1003.30
2019-05-15T10:56:03.801Z,1003.32
2019-05-15T10:57:05.375Z,1003.33
2019-05-15T10:58:03.838Z,1003.36
2019-05-15T10:59:03.859Z,1003.41
2019-05-15T11:00:03.875Z,1003.40
2019-05-15T11:01:04.211Z,1003.40
2019-05-15T11:02:03.920Z,1003.41
2019-05-15T11:03:03.950Z,1003.39
2019-05-15T11:04:03.965Z,1003.43
2019-05-15T11:05:04.001Z,1003.47
2019-05-15T11:06:04.208Z,1003.50
2019-05-15T11:07:04.369Z,1003.53
2019-05-15T11:08:04.522Z,1003.58
2019-05-15T11:09:18.814Z,1003.64
2019-05-15T11:10:04.353Z,1003.66
2019-05-15T11:11:04.139Z,1003.70
2019-05-15T11:12:04.145Z,1003.72
2019-05-15T11:13:04.169Z,1003.73
2019-05-15T11:14:04.196Z,1003.80
2019-05-15T11:15:04.213Z,1003.85
2019-05-15T11:16:04.239Z,1003.91
2019-05-15T11:17:04.257Z,1003.98
2019-05-15T11:18:04.286Z,1004.03
2019-05-15T11:19:04.321Z,1004.11
2019-05-15T11:20:04.325Z,1004.13
2019-05-15T11:21:04.352Z,1004.15
2019-05-15T11:22:04.445Z,1004.12
2019-05-15T11:23:04.422Z,1004.19
2019-05-15T11:24:04.423Z,1004.15
2019-05-15T11:25:04.446Z,1004.12
2019-05-15T11:26:04.719Z,1004.11
2019-05-15T11:27:13.550Z,1004.04
2019-05-15T11:28:04.502Z,1004.02
2019-05-15T11:29:04.529Z,1004.02
2019-05-15T11:30:04.673Z,1004.01
2019-05-15T11:31:05.572Z,1003.95
2019-05-15T11:32:04.817Z,1004.00
2019-05-15T11:33:04.710Z,1003.92
2019-05-15T11:34:04.637Z,1003.87
2019-05-15T11:35:04.825Z,1003.86
2019-05-15T11:36:06.236Z,1003.89
2019-05-15T11:37:04.709Z,1003.90
2019-05-15T11:38:04.726Z,1003.97
2019-05-15T11:39:04.748Z,1003.99
2019-05-15T11:40:04.780Z,1004.06
2019-05-15T11:41:04.889Z,1004.07
2019-05-15T11:42:04.817Z,1004.10
2019-05-15T11:43:04.836Z,1004.16
2019-05-15T11:44:04.878Z,1004.15
2019-05-15T11:45:04.882Z,1004.19
2019-05-15T11:46:04.906Z,1004.16
2019-05-15T11:47:04.926Z,1004.25
2019-05-15T11:48:04.948Z,1004.23
2019-05-15T11:49:04.973Z,1004.22
2019-05-15T11:50:04.992Z,1004.29
2019-05-15T11:51:05.124Z,1004.33
2019-05-15T11:52:05.227Z,1004.31
2019-05-15T11:53:05.181Z,1004.34
2019-05-15T11:54:05.085Z,1004.29
2019-05-15T11:55:05.105Z,1004.30
2019-05-15T11:56:05.125Z,1004.27
2019-05-15T11:57:05.149Z,1004.27
2019-05-15T11:58:05.170Z,1004.25
2019-05-15T11:59:05.193Z,1004.28
2019-05-15T12:00:05.484Z,1004.32
2019-05-15T12:01:05.236Z,1004.34
2019-05-15T12:02:05.372Z,1004.35
2019-05-15T12:03:05.281Z,1004.36
2019-05-15T12:04:05.307Z,1004.39
2019-05-15T12:05:05.325Z,1004.35
2019-05-15T12:06:15.973Z,1004.38
2019-05-15T12:07:05.369Z,1004.42